sensor_id;sensor_type;location;lat;lon;timestamp;temperature;humidity
35381;DHT22;21486;51.916;8.378;2023-04-24T00:01:40;11.40;91.20
35381;DHT22;21486;51.916;8.378;2023-04-24T00:04:06;11.50;91.00
35381;DHT22;21486;51.916;8.378;2023-04-24T00:06:38;11.50;90.60
35381;DHT22;21486;51.916;8.378;2023-04-24T00:09:08;11.60;90.40
35381;DHT22;21486;51.916;8.378;2023-04-24T00:11:35;11.60;91.00
35381;DHT22;21486;51.916;8.378;2023-04-24T00:14:01;11.50;91.00
35381;DHT22;21486;51.916;8.378;2023-04-24T00:16:27;11.50;91.20
35381;DHT22;21486;51.916;8.378;2023-04-24T00:18:53;11.40;91.70
35381;DHT22;21486;51.916;8.378;2023-04-24T00:21:18;11.30;91.90
35381;DHT22;21486;51.916;8.378;2023-04-24T00:23:44;11.30;91.90
35381;DHT22;21486;51.916;8.378;2023-04-24T00:26:10;11.40;91.90
35381;DHT22;21486;51.916;8.378;2023-04-24T00:28:35;11.40;91.80
35381;DHT22;21486;51.916;8.378;2023-04-24T00:33:04;11.60;88.70
35381;DHT22;21486;51.916;8.378;2023-04-24T00:35:29;11.70;88.40
35381;DHT22;21486;51.916;8.378;2023-04-24T00:37:55;11.60;89.00
35381;DHT22;21486;51.916;8.378;2023-04-24T00:40:20;11.60;89.00
35381;DHT22;21486;51.916;8.378;2023-04-24T00:42:46;11.60;89.10
35381;DHT22;21486;51.916;8.378;2023-04-24T00:45:12;11.60;90.40
35381;DHT22;21486;51.916;8.378;2023-04-24T00:47:38;11.50;90.40
35381;DHT22;21486;51.916;8.378;2023-04-24T00:50:05;11.60;90.50
35381;DHT22;21486;51.916;8.378;2023-04-24T00:52:31;11.50;91.20
35381;DHT22;21486;51.916;8.378;2023-04-24T00:54:58;11.50;91.30
35381;DHT22;21486;51.916;8.378;2023-04-24T00:57:24;11.60;91.20
35381;DHT22;21486;51.916;8.378;2023-04-24T00:59:51;11.50;91.20
35381;DHT22;21486;51.916;8.378;2023-04-24T01:02:17;11.60;90.80
35381;DHT22;21486;51.916;8.378;2023-04-24T01:04:43;11.70;91.30
35381;DHT22;21486;51.916;8.378;2023-04-24T01:07:09;11.50;91.20
35381;DHT22;21486;51.916;8.378;2023-04-24T01:09:38;11.50;91.40
35381;DHT22;21486;51.916;8.378;2023-04-24T01:12:05;11.50;91.80
35381;DHT22;21486;51.916;8.378;2023-04-24T01:14:31;11.50;92.00
35381;DHT22;21486;51.916;8.378;2023-04-24T01:16:56;11.40;92.10
35381;DHT22;21486;51.916;8.378;2023-04-24T01:19:23;11.30;92.20
35381;DHT22;21486;51.916;8.378;2023-04-24T01:21:51;11.40;92.00
35381;DHT22;21486;51.916;8.378;2023-04-24T01:24:19;11.40;92.20
35381;DHT22;21486;51.916;8.378;2023-04-24T01:26:45;11.40;92.10
35381;DHT22;21486;51.916;8.378;2023-04-24T01:29:12;11.40;92.20
35381;DHT22;21486;51.916;8.378;2023-04-24T01:31:39;11.30;92.50
35381;DHT22;21486;51.916;8.378;2023-04-24T01:34:05;11.20;93.00
35381;DHT22;21486;51.916;8.378;2023-04-24T01:36:32;11.00;93.50
35381;DHT22;21486;51.916;8.378;2023-04-24T01:38:58;10.90;93.70
35381;DHT22;21486;51.916;8.378;2023-04-24T01:41:24;10.90;94.10
35381;DHT22;21486;51.916;8.378;2023-04-24T01:43:50;10.80;94.00
35381;DHT22;21486;51.916;8.378;2023-04-24T01:46:16;10.90;93.90
35381;DHT22;21486;51.916;8.378;2023-04-24T01:48:41;10.80;94.10
35381;DHT22;21486;51.916;8.378;2023-04-24T01:51:07;10.70;94.50
35381;DHT22;21486;51.916;8.378;2023-04-24T01:53:33;10.70;93.90
35381;DHT22;21486;51.916;8.378;2023-04-24T01:55:58;10.70;93.80
35381;DHT22;21486;51.916;8.378;2023-04-24T01:58:24;10.70;93.40
35381;DHT22;21486;51.916;8.378;2023-04-24T02:00:50;10.70;93.70
35381;DHT22;21486;51.916;8.378;2023-04-24T02:03:15;10.70;93.60
35381;DHT22;21486;51.916;8.378;2023-04-24T02:05:44;10.60;93.90
35381;DHT22;21486;51.916;8.378;2023-04-24T02:08:09;10.60;94.00
35381;DHT22;21486;51.916;8.378;2023-04-24T02:10:35;10.50;94.10
35381;DHT22;21486;51.916;8.378;2023-04-24T02:13:01;10.50;94.50
35381;DHT22;21486;51.916;8.378;2023-04-24T02:15:26;10.40;95.10
35381;DHT22;21486;51.916;8.378;2023-04-24T02:17:52;10.20;95.50
35381;DHT22;21486;51.916;8.378;2023-04-24T02:20:17;10.20;95.60
35381;DHT22;21486;51.916;8.378;2023-04-24T02:22:43;10.10;95.80
35381;DHT22;21486;51.916;8.378;2023-04-24T02:25:08;10.20;95.30
35381;DHT22;21486;51.916;8.378;2023-04-24T02:27:34;10.20;95.40
35381;DHT22;21486;51.916;8.378;2023-04-24T02:30:00;10.10;95.70
35381;DHT22;21486;51.916;8.378;2023-04-24T02:32:25;10.10;95.70
35381;DHT22;21486;51.916;8.378;2023-04-24T02:34:51;10.00;95.90
35381;DHT22;21486;51.916;8.378;2023-04-24T02:37:17;10.00;96.00
35381;DHT22;21486;51.916;8.378;2023-04-24T02:39:42;10.00;96.20
35381;DHT22;21486;51.916;8.378;2023-04-24T02:42:08;9.90;96.30
35381;DHT22;21486;51.916;8.378;2023-04-24T02:44:33;9.90;96.60
35381;DHT22;21486;51.916;8.378;2023-04-24T02:46:59;9.90;96.70
35381;DHT22;21486;51.916;8.378;2023-04-24T02:49:24;9.90;97.00
35381;DHT22;21486;51.916;8.378;2023-04-24T02:51:51;9.90;97.20
35381;DHT22;21486;51.916;8.378;2023-04-24T02:54:16;9.90;97.30
35381;DHT22;21486;51.916;8.378;2023-04-24T02:56:42;10.10;96.90
35381;DHT22;21486;51.916;8.378;2023-04-24T02:59:07;10.10;96.90
35381;DHT22;21486;51.916;8.378;2023-04-24T03:01:33;10.10;97.00
35381;DHT22;21486;51.916;8.378;2023-04-24T03:03:58;10.20;96.80
35381;DHT22;21486;51.916;8.378;2023-04-24T03:06:24;10.20;96.70
35381;DHT22;21486;51.916;8.378;2023-04-24T03:08:50;10.20;96.90
35381;DHT22;21486;51.916;8.378;2023-04-24T03:11:15;10.20;96.90
35381;DHT22;21486;51.916;8.378;2023-04-24T03:13:41;10.20;97.10
35381;DHT22;21486;51.916;8.378;2023-04-24T03:16:06;10.20;97.10
35381;DHT22;21486;51.916;8.378;2023-04-24T03:18:32;10.30;97.30
35381;DHT22;21486;51.916;8.378;2023-04-24T03:20:57;10.30;97.10
35381;DHT22;21486;51.916;8.378;2023-04-24T03:23:23;10.30;97.10
35381;DHT22;21486;51.916;8.378;2023-04-24T03:25:48;10.40;96.90
35381;DHT22;21486;51.916;8.378;2023-04-24T03:28:14;10.30;96.90
35381;DHT22;21486;51.916;8.378;2023-04-24T03:30:40;10.40;97.00
35381;DHT22;21486;51.916;8.378;2023-04-24T03:33:05;10.30;96.70
35381;DHT22;21486;51.916;8.378;2023-04-24T03:35:31;10.40;96.60
35381;DHT22;21486;51.916;8.378;2023-04-24T03:37:56;10.40;96.50
35381;DHT22;21486;51.916;8.378;2023-04-24T03:40:22;10.40;96.20
35381;DHT22;21486;51.916;8.378;2023-04-24T03:42:47;10.60;96.20
35381;DHT22;21486;51.916;8.378;2023-04-24T03:45:13;10.50;95.80
35381;DHT22;21486;51.916;8.378;2023-04-24T03:47:38;10.40;96.00
35381;DHT22;21486;51.916;8.378;2023-04-24T03:50:04;10.50;95.50
35381;DHT22;21486;51.916;8.378;2023-04-24T03:52:30;10.50;95.30
35381;DHT22;21486;51.916;8.378;2023-04-24T03:54:56;10.40;95.50
35381;DHT22;21486;51.916;8.378;2023-04-24T03:57:21;10.30;95.60
35381;DHT22;21486;51.916;8.378;2023-04-24T03:59:47;10.40;95.50
35381;DHT22;21486;51.916;8.378;2023-04-24T04:02:12;10.40;95.70
35381;DHT22;21486;51.916;8.378;2023-04-24T04:04:38;10.30;94.60
35381;DHT22;21486;51.916;8.378;2023-04-24T04:07:03;10.40;94.50
35381;DHT22;21486;51.916;8.378;2023-04-24T04:09:30;10.40;94.50
35381;DHT22;21486;51.916;8.378;2023-04-24T04:11:56;10.40;94.30
35381;DHT22;21486;51.916;8.378;2023-04-24T04:14:22;10.40;94.30
35381;DHT22;21486;51.916;8.378;2023-04-24T04:16:48;10.50;94.60
35381;DHT22;21486;51.916;8.378;2023-04-24T04:19:14;10.50;94.80
35381;DHT22;21486;51.916;8.378;2023-04-24T04:21:39;10.50;94.50
35381;DHT22;21486;51.916;8.378;2023-04-24T04:24:05;10.60;94.40
35381;DHT22;21486;51.916;8.378;2023-04-24T04:26:32;10.60;93.40
35381;DHT22;21486;51.916;8.378;2023-04-24T04:28:59;10.60;93.40
35381;DHT22;21486;51.916;8.378;2023-04-24T04:31:25;10.60;93.00
35381;DHT22;21486;51.916;8.378;2023-04-24T04:33:51;10.60;92.70
35381;DHT22;21486;51.916;8.378;2023-04-24T04:36:16;10.50;92.30
35381;DHT22;21486;51.916;8.378;2023-04-24T04:38:43;10.50;92.40
35381;DHT22;21486;51.916;8.378;2023-04-24T04:41:10;10.50;92.00
35381;DHT22;21486;51.916;8.378;2023-04-24T04:43:36;10.40;92.10
35381;DHT22;21486;51.916;8.378;2023-04-24T04:46:01;10.30;93.00
35381;DHT22;21486;51.916;8.378;2023-04-24T04:48:28;10.10;92.80
35381;DHT22;21486;51.916;8.378;2023-04-24T04:50:54;10.00;93.40
35381;DHT22;21486;51.916;8.378;2023-04-24T04:53:20;10.10;93.10
35381;DHT22;21486;51.916;8.378;2023-04-24T04:55:45;10.10;92.80
35381;DHT22;21486;51.916;8.378;2023-04-24T04:58:12;10.00;93.10
35381;DHT22;21486;51.916;8.378;2023-04-24T05:00:38;10.00;93.30
35381;DHT22;21486;51.916;8.378;2023-04-24T05:03:04;9.90;93.30
35381;DHT22;21486;51.916;8.378;2023-04-24T05:05:30;10.00;93.10
35381;DHT22;21486;51.916;8.378;2023-04-24T05:07:55;10.00;93.00
35381;DHT22;21486;51.916;8.378;2023-04-24T05:10:21;10.00;93.20
35381;DHT22;21486;51.916;8.378;2023-04-24T05:12:46;10.10;93.10
35381;DHT22;21486;51.916;8.378;2023-04-24T05:15:12;10.20;92.90
35381;DHT22;21486;51.916;8.378;2023-04-24T05:17:37;10.10;93.40
35381;DHT22;21486;51.916;8.378;2023-04-24T05:20:05;10.00;92.90
35381;DHT22;21486;51.916;8.378;2023-04-24T05:22:31;10.00;93.30
35381;DHT22;21486;51.916;8.378;2023-04-24T05:24:57;10.00;93.20
35381;DHT22;21486;51.916;8.378;2023-04-24T05:27:22;10.20;93.10
35381;DHT22;21486;51.916;8.378;2023-04-24T05:29:48;10.10;93.30
35381;DHT22;21486;51.916;8.378;2023-04-24T05:32:14;10.30;93.10
35381;DHT22;21486;51.916;8.378;2023-04-24T05:34:39;10.10;93.50
35381;DHT22;21486;51.916;8.378;2023-04-24T05:37:05;10.10;93.30
35381;DHT22;21486;51.916;8.378;2023-04-24T05:39:34;10.10;93.80
35381;DHT22;21486;51.916;8.378;2023-04-24T05:42:00;10.10;94.00
35381;DHT22;21486;51.916;8.378;2023-04-24T05:44:27;10.10;94.20
35381;DHT22;21486;51.916;8.378;2023-04-24T05:46:52;10.10;93.80
35381;DHT22;21486;51.916;8.378;2023-04-24T05:49:18;10.30;93.50
35381;DHT22;21486;51.916;8.378;2023-04-24T05:51:43;10.30;93.30
35381;DHT22;21486;51.916;8.378;2023-04-24T05:54:09;10.30;93.30
35381;DHT22;21486;51.916;8.378;2023-04-24T05:56:37;10.40;93.20
35381;DHT22;21486;51.916;8.378;2023-04-24T05:59:03;10.40;93.10
35381;DHT22;21486;51.916;8.378;2023-04-24T06:01:28;10.30;93.10
35381;DHT22;21486;51.916;8.378;2023-04-24T06:03:54;10.30;93.00
35381;DHT22;21486;51.916;8.378;2023-04-24T06:06:20;10.30;92.90
35381;DHT22;21486;51.916;8.378;2023-04-24T06:08:46;10.50;92.60
35381;DHT22;21486;51.916;8.378;2023-04-24T06:11:11;10.40;92.70
35381;DHT22;21486;51.916;8.378;2023-04-24T06:13:37;10.30;93.00
35381;DHT22;21486;51.916;8.378;2023-04-24T06:16:02;10.30;93.10
35381;DHT22;21486;51.916;8.378;2023-04-24T06:18:28;10.30;92.60
35381;DHT22;21486;51.916;8.378;2023-04-24T06:20:53;10.30;92.50
35381;DHT22;21486;51.916;8.378;2023-04-24T06:23:20;10.20;93.00
35381;DHT22;21486;51.916;8.378;2023-04-24T06:25:45;10.30;92.80
35381;DHT22;21486;51.916;8.378;2023-04-24T06:28:11;10.20;93.30
35381;DHT22;21486;51.916;8.378;2023-04-24T06:30:37;10.20;93.10
35381;DHT22;21486;51.916;8.378;2023-04-24T06:33:02;10.30;92.90
35381;DHT22;21486;51.916;8.378;2023-04-24T06:35:28;10.20;92.60
35381;DHT22;21486;51.916;8.378;2023-04-24T06:37:54;10.20;93.20
35381;DHT22;21486;51.916;8.378;2023-04-24T06:40:21;10.20;93.00
35381;DHT22;21486;51.916;8.378;2023-04-24T06:42:47;10.20;92.70
35381;DHT22;21486;51.916;8.378;2023-04-24T06:45:12;10.20;92.90
35381;DHT22;21486;51.916;8.378;2023-04-24T06:47:38;10.20;92.60
35381;DHT22;21486;51.916;8.378;2023-04-24T06:50:04;10.30;92.20
35381;DHT22;21486;51.916;8.378;2023-04-24T06:52:30;10.30;92.10
35381;DHT22;21486;51.916;8.378;2023-04-24T06:55:04;10.40;92.00
35381;DHT22;21486;51.916;8.378;2023-04-24T06:57:30;10.50;91.60
35381;DHT22;21486;51.916;8.378;2023-04-24T06:59:56;10.40;91.50
35381;DHT22;21486;51.916;8.378;2023-04-24T07:02:22;10.50;91.50
35381;DHT22;21486;51.916;8.378;2023-04-24T07:04:47;10.60;90.60
35381;DHT22;21486;51.916;8.378;2023-04-24T07:07:13;10.40;90.40
35381;DHT22;21486;51.916;8.378;2023-04-24T07:09:42;10.40;90.60
35381;DHT22;21486;51.916;8.378;2023-04-24T07:12:08;10.30;91.10
35381;DHT22;21486;51.916;8.378;2023-04-24T07:14:36;10.40;90.80
35381;DHT22;21486;51.916;8.378;2023-04-24T07:17:02;10.50;91.00
35381;DHT22;21486;51.916;8.378;2023-04-24T07:19:28;10.50;91.00
35381;DHT22;21486;51.916;8.378;2023-04-24T07:21:54;10.50;90.60
35381;DHT22;21486;51.916;8.378;2023-04-24T07:24:20;10.50;90.10
35381;DHT22;21486;51.916;8.378;2023-04-24T07:26:46;10.50;90.20
35381;DHT22;21486;51.916;8.378;2023-04-24T07:29:12;10.50;90.30
35381;DHT22;21486;51.916;8.378;2023-04-24T07:31:38;10.40;90.40
35381;DHT22;21486;51.916;8.378;2023-04-24T07:34:04;10.40;90.40
35381;DHT22;21486;51.916;8.378;2023-04-24T07:36:29;10.50;90.70
35381;DHT22;21486;51.916;8.378;2023-04-24T07:38:55;10.60;90.30
35381;DHT22;21486;51.916;8.378;2023-04-24T07:41:22;10.50;90.50
35381;DHT22;21486;51.916;8.378;2023-04-24T07:43:48;10.60;90.20
35381;DHT22;21486;51.916;8.378;2023-04-24T07:46:13;10.70;90.20
35381;DHT22;21486;51.916;8.378;2023-04-24T07:48:39;10.60;90.00
35381;DHT22;21486;51.916;8.378;2023-04-24T07:51:04;10.80;89.20
35381;DHT22;21486;51.916;8.378;2023-04-24T07:53:30;10.80;88.70
35381;DHT22;21486;51.916;8.378;2023-04-24T07:55:56;10.80;88.60
35381;DHT22;21486;51.916;8.378;2023-04-24T07:58:22;10.90;88.10
35381;DHT22;21486;51.916;8.378;2023-04-24T08:00:47;10.90;88.00
35381;DHT22;21486;51.916;8.378;2023-04-24T08:03:13;10.80;87.90
35381;DHT22;21486;51.916;8.378;2023-04-24T08:05:39;10.70;88.30
35381;DHT22;21486;51.916;8.378;2023-04-24T08:08:04;10.50;88.80
35381;DHT22;21486;51.916;8.378;2023-04-24T08:10:30;10.40;89.80
35381;DHT22;21486;51.916;8.378;2023-04-24T08:12:55;10.30;90.00
35381;DHT22;21486;51.916;8.378;2023-04-24T08:15:21;10.30;90.40
35381;DHT22;21486;51.916;8.378;2023-04-24T08:17:47;10.50;90.50
35381;DHT22;21486;51.916;8.378;2023-04-24T08:20:12;10.50;89.60
35381;DHT22;21486;51.916;8.378;2023-04-24T08:22:42;10.70;90.10
35381;DHT22;21486;51.916;8.378;2023-04-24T08:25:09;10.80;88.60
35381;DHT22;21486;51.916;8.378;2023-04-24T08:27:34;10.90;87.50
35381;DHT22;21486;51.916;8.378;2023-04-24T08:30:02;10.90;87.70
35381;DHT22;21486;51.916;8.378;2023-04-24T08:32:28;10.70;87.80
35381;DHT22;21486;51.916;8.378;2023-04-24T08:34:54;10.80;87.40
35381;DHT22;21486;51.916;8.378;2023-04-24T08:37:22;10.80;87.70
35381;DHT22;21486;51.916;8.378;2023-04-24T08:39:47;10.90;88.00
35381;DHT22;21486;51.916;8.378;2023-04-24T08:42:14;11.00;88.00
35381;DHT22;21486;51.916;8.378;2023-04-24T08:44:40;10.80;87.40
35381;DHT22;21486;51.916;8.378;2023-04-24T08:47:07;10.70;89.10
35381;DHT22;21486;51.916;8.378;2023-04-24T08:49:33;10.70;88.10
35381;DHT22;21486;51.916;8.378;2023-04-24T08:52:01;10.70;90.10
35381;DHT22;21486;51.916;8.378;2023-04-24T08:54:28;10.70;88.50
35381;DHT22;21486;51.916;8.378;2023-04-24T08:56:59;10.60;88.30
35381;DHT22;21486;51.916;8.378;2023-04-24T08:59:29;10.50;89.40
35381;DHT22;21486;51.916;8.378;2023-04-24T09:01:55;10.60;89.30
35381;DHT22;21486;51.916;8.378;2023-04-24T09:04:23;10.80;88.40
35381;DHT22;21486;51.916;8.378;2023-04-24T09:06:56;10.70;87.90
35381;DHT22;21486;51.916;8.378;2023-04-24T09:09:23;10.60;88.50
35381;DHT22;21486;51.916;8.378;2023-04-24T09:11:50;10.50;88.30
35381;DHT22;21486;51.916;8.378;2023-04-24T09:14:17;10.50;88.80
35381;DHT22;21486;51.916;8.378;2023-04-24T09:16:42;10.40;88.40
35381;DHT22;21486;51.916;8.378;2023-04-24T09:19:08;10.40;88.10
35381;DHT22;21486;51.916;8.378;2023-04-24T09:21:34;10.60;89.00
35381;DHT22;21486;51.916;8.378;2023-04-24T09:24:08;10.70;87.30
35381;DHT22;21486;51.916;8.378;2023-04-24T09:26:39;10.90;87.10
35381;DHT22;21486;51.916;8.378;2023-04-24T09:29:04;11.30;86.10
35381;DHT22;21486;51.916;8.378;2023-04-24T09:31:30;11.30;84.50
35381;DHT22;21486;51.916;8.378;2023-04-24T09:34:04;10.90;85.60
35381;DHT22;21486;51.916;8.378;2023-04-24T09:36:42;11.00;86.60
35381;DHT22;21486;51.916;8.378;2023-04-24T09:39:12;11.00;87.90
35381;DHT22;21486;51.916;8.378;2023-04-24T09:41:46;11.00;87.00
35381;DHT22;21486;51.916;8.378;2023-04-24T09:44:17;10.80;87.50
35381;DHT22;21486;51.916;8.378;2023-04-24T09:46:45;10.70;88.90
35381;DHT22;21486;51.916;8.378;2023-04-24T09:49:15;10.60;90.20
35381;DHT22;21486;51.916;8.378;2023-04-24T09:51:42;10.50;89.70
35381;DHT22;21486;51.916;8.378;2023-04-24T09:54:18;10.30;90.00
35381;DHT22;21486;51.916;8.378;2023-04-24T09:56:47;10.30;90.90
35381;DHT22;21486;51.916;8.378;2023-04-24T09:59:17;10.50;90.80
35381;DHT22;21486;51.916;8.378;2023-04-24T10:01:44;10.40;90.60
35381;DHT22;21486;51.916;8.378;2023-04-24T10:04:16;10.30;90.90
35381;DHT22;21486;51.916;8.378;2023-04-24T10:06:43;10.20;91.60
35381;DHT22;21486;51.916;8.378;2023-04-24T10:09:09;10.10;91.80
35381;DHT22;21486;51.916;8.378;2023-04-24T10:11:37;9.90;93.10
35381;DHT22;21486;51.916;8.378;2023-04-24T10:14:04;9.80;93.40
35381;DHT22;21486;51.916;8.378;2023-04-24T10:16:31;9.90;93.80
35381;DHT22;21486;51.916;8.378;2023-04-24T10:18:59;10.00;93.90
35381;DHT22;21486;51.916;8.378;2023-04-24T10:21:26;10.20;93.70
35381;DHT22;21486;51.916;8.378;2023-04-24T10:23:52;10.20;92.90
35381;DHT22;21486;51.916;8.378;2023-04-24T10:26:19;10.20;93.20
35381;DHT22;21486;51.916;8.378;2023-04-24T10:28:46;10.10;93.40
35381;DHT22;21486;51.916;8.378;2023-04-24T10:31:13;10.10;93.60
35381;DHT22;21486;51.916;8.378;2023-04-24T10:33:43;10.10;93.90
35381;DHT22;21486;51.916;8.378;2023-04-24T10:36:12;10.10;94.10
35381;DHT22;21486;51.916;8.378;2023-04-24T10:38:41;10.10;93.30
35381;DHT22;21486;51.916;8.378;2023-04-24T10:41:11;9.90;94.20
35381;DHT22;21486;51.916;8.378;2023-04-24T10:43:45;9.80;94.80
35381;DHT22;21486;51.916;8.378;2023-04-24T10:46:10;9.70;95.80
35381;DHT22;21486;51.916;8.378;2023-04-24T10:48:42;9.70;95.80
35381;DHT22;21486;51.916;8.378;2023-04-24T10:51:12;9.80;96.00
35381;DHT22;21486;51.916;8.378;2023-04-24T10:53:39;9.80;96.80
35381;DHT22;21486;51.916;8.378;2023-04-24T10:56:09;9.70;97.20
35381;DHT22;21486;51.916;8.378;2023-04-24T10:58:43;9.60;97.80
35381;DHT22;21486;51.916;8.378;2023-04-24T11:01:24;9.60;98.90
35381;DHT22;21486;51.916;8.378;2023-04-24T11:03:54;9.30;99.80
35381;DHT22;21486;51.916;8.378;2023-04-24T11:06:35;9.40;99.90
35381;DHT22;21486;51.916;8.378;2023-04-24T11:09:07;9.40;99.90
35381;DHT22;21486;51.916;8.378;2023-04-24T11:11:35;9.60;99.90
35381;DHT22;21486;51.916;8.378;2023-04-24T11:14:02;9.50;99.90
35381;DHT22;21486;51.916;8.378;2023-04-24T11:16:29;9.40;99.90
35381;DHT22;21486;51.916;8.378;2023-04-24T11:22:00;9.30;99.90
35381;DHT22;21486;51.916;8.378;2023-04-24T11:24:38;9.40;99.90
35381;DHT22;21486;51.916;8.378;2023-04-24T11:32:29;9.30;99.90
35381;DHT22;21486;51.916;8.378;2023-04-24T11:35:05;9.50;99.90
35381;DHT22;21486;51.916;8.378;2023-04-24T11:37:43;9.30;99.90
35381;DHT22;21486;51.916;8.378;2023-04-24T11:40:12;9.30;99.90
35381;DHT22;21486;51.916;8.378;2023-04-24T11:42:43;9.20;99.90
35381;DHT22;21486;51.916;8.378;2023-04-24T11:45:13;9.20;99.90
35381;DHT22;21486;51.916;8.378;2023-04-24T11:47:39;9.20;99.90
35381;DHT22;21486;51.916;8.378;2023-04-24T11:50:07;9.20;99.90
35381;DHT22;21486;51.916;8.378;2023-04-24T11:52:37;9.30;99.90
35381;DHT22;21486;51.916;8.378;2023-04-24T11:55:04;9.20;99.90
35381;DHT22;21486;51.916;8.378;2023-04-24T11:57:31;9.00;99.90
35381;DHT22;21486;51.916;8.378;2023-04-24T12:00:00;8.90;99.90
35381;DHT22;21486;51.916;8.378;2023-04-24T12:02:26;8.80;99.90
35381;DHT22;21486;51.916;8.378;2023-04-24T12:04:53;9.00;99.90
35381;DHT22;21486;51.916;8.378;2023-04-24T12:07:19;8.90;99.90
35381;DHT22;21486;51.916;8.378;2023-04-24T12:09:55;8.90;99.90
35381;DHT22;21486;51.916;8.378;2023-04-24T12:12:23;8.90;99.90
35381;DHT22;21486;51.916;8.378;2023-04-24T12:14:54;8.80;99.90
35381;DHT22;21486;51.916;8.378;2023-04-24T12:17:31;8.90;99.90
35381;DHT22;21486;51.916;8.378;2023-04-24T12:20:05;8.70;99.90
35381;DHT22;21486;51.916;8.378;2023-04-24T12:22:51;8.70;99.90
35381;DHT22;21486;51.916;8.378;2023-04-24T12:25:20;8.60;99.90
35381;DHT22;21486;51.916;8.378;2023-04-24T12:30:30;8.70;99.90
35381;DHT22;21486;51.916;8.378;2023-04-24T12:32:58;8.80;99.90
35381;DHT22;21486;51.916;8.378;2023-04-24T12:35:26;9.00;99.90
35381;DHT22;21486;51.916;8.378;2023-04-24T12:37:52;8.90;99.90
35381;DHT22;21486;51.916;8.378;2023-04-24T12:40:19;8.80;99.90
35381;DHT22;21486;51.916;8.378;2023-04-24T12:42:47;8.80;99.90
35381;DHT22;21486;51.916;8.378;2023-04-24T12:45:14;8.90;99.90
35381;DHT22;21486;51.916;8.378;2023-04-24T12:47:41;8.80;99.90
35381;DHT22;21486;51.916;8.378;2023-04-24T12:50:08;8.90;99.90
35381;DHT22;21486;51.916;8.378;2023-04-24T12:52:35;8.90;99.90
35381;DHT22;21486;51.916;8.378;2023-04-24T12:55:01;8.90;99.90
35381;DHT22;21486;51.916;8.378;2023-04-24T12:57:28;8.80;99.90
35381;DHT22;21486;51.916;8.378;2023-04-24T12:59:55;8.80;99.90
35381;DHT22;21486;51.916;8.378;2023-04-24T13:02:22;8.60;99.90
35381;DHT22;21486;51.916;8.378;2023-04-24T13:04:48;8.50;99.90
35381;DHT22;21486;51.916;8.378;2023-04-24T13:07:14;8.60;99.90
35381;DHT22;21486;51.916;8.378;2023-04-24T13:09:40;8.60;99.90
35381;DHT22;21486;51.916;8.378;2023-04-24T13:12:07;8.60;99.90
35381;DHT22;21486;51.916;8.378;2023-04-24T13:14:32;8.60;99.90
35381;DHT22;21486;51.916;8.378;2023-04-24T13:16:58;8.60;99.90
35381;DHT22;21486;51.916;8.378;2023-04-24T13:19:27;8.60;99.90
35381;DHT22;21486;51.916;8.378;2023-04-24T13:21:55;8.60;99.90
35381;DHT22;21486;51.916;8.378;2023-04-24T13:24:21;8.80;99.90
35381;DHT22;21486;51.916;8.378;2023-04-24T13:26:50;9.00;99.90
35381;DHT22;21486;51.916;8.378;2023-04-24T13:29:16;9.10;99.90
35381;DHT22;21486;51.916;8.378;2023-04-24T13:31:41;9.20;99.90
35381;DHT22;21486;51.916;8.378;2023-04-24T13:34:07;9.40;99.90
35381;DHT22;21486;51.916;8.378;2023-04-24T13:36:32;9.40;99.90
35381;DHT22;21486;51.916;8.378;2023-04-24T13:38:58;9.30;99.90
35381;DHT22;21486;51.916;8.378;2023-04-24T13:41:24;9.30;99.90
35381;DHT22;21486;51.916;8.378;2023-04-24T13:43:49;9.20;99.90
35381;DHT22;21486;51.916;8.378;2023-04-24T13:46:15;9.00;99.90
35381;DHT22;21486;51.916;8.378;2023-04-24T13:48:41;8.90;99.90
35381;DHT22;21486;51.916;8.378;2023-04-24T13:51:07;8.90;99.90
35381;DHT22;21486;51.916;8.378;2023-04-24T13:53:32;8.90;99.90
35381;DHT22;21486;51.916;8.378;2023-04-24T13:56:01;9.00;99.90
35381;DHT22;21486;51.916;8.378;2023-04-24T13:58:27;9.00;99.90
35381;DHT22;21486;51.916;8.378;2023-04-24T14:00:53;9.00;99.90
35381;DHT22;21486;51.916;8.378;2023-04-24T14:03:18;9.00;99.90
35381;DHT22;21486;51.916;8.378;2023-04-24T14:05:44;8.90;99.90
35381;DHT22;21486;51.916;8.378;2023-04-24T14:08:09;8.80;99.90
35381;DHT22;21486;51.916;8.378;2023-04-24T14:10:35;8.80;99.90
35381;DHT22;21486;51.916;8.378;2023-04-24T14:13:01;8.70;99.90
35381;DHT22;21486;51.916;8.378;2023-04-24T14:15:26;8.70;99.90
35381;DHT22;21486;51.916;8.378;2023-04-24T14:17:52;8.70;99.90
35381;DHT22;21486;51.916;8.378;2023-04-24T14:20:17;8.70;99.90
35381;DHT22;21486;51.916;8.378;2023-04-24T14:22:43;8.70;99.90
35381;DHT22;21486;51.916;8.378;2023-04-24T14:25:09;8.80;99.90
35381;DHT22;21486;51.916;8.378;2023-04-24T14:27:34;8.90;99.90
35381;DHT22;21486;51.916;8.378;2023-04-24T14:30:00;9.00;99.90
35381;DHT22;21486;51.916;8.378;2023-04-24T14:32:26;8.90;99.90
35381;DHT22;21486;51.916;8.378;2023-04-24T14:34:51;8.90;99.90
35381;DHT22;21486;51.916;8.378;2023-04-24T14:37:17;9.20;99.90
35381;DHT22;21486;51.916;8.378;2023-04-24T14:39:42;9.40;99.90
35381;DHT22;21486;51.916;8.378;2023-04-24T14:42:08;9.30;99.90
35381;DHT22;21486;51.916;8.378;2023-04-24T14:44:33;9.20;99.90
35381;DHT22;21486;51.916;8.378;2023-04-24T14:46:59;9.20;99.90
35381;DHT22;21486;51.916;8.378;2023-04-24T14:49:25;9.10;99.90
35381;DHT22;21486;51.916;8.378;2023-04-24T14:51:51;9.00;99.90
35381;DHT22;21486;51.916;8.378;2023-04-24T14:54:16;9.10;99.90
35381;DHT22;21486;51.916;8.378;2023-04-24T14:56:42;9.00;99.90
35381;DHT22;21486;51.916;8.378;2023-04-24T14:59:09;9.10;99.90
35381;DHT22;21486;51.916;8.378;2023-04-24T15:01:35;9.20;99.90
35381;DHT22;21486;51.916;8.378;2023-04-24T15:04:01;9.00;99.90
35381;DHT22;21486;51.916;8.378;2023-04-24T15:06:26;9.00;99.90
35381;DHT22;21486;51.916;8.378;2023-04-24T15:08:52;9.10;99.90
35381;DHT22;21486;51.916;8.378;2023-04-24T15:11:18;9.30;99.90
35381;DHT22;21486;51.916;8.378;2023-04-24T15:13:43;9.40;99.90
35381;DHT22;21486;51.916;8.378;2023-04-24T15:16:12;9.50;99.70
35381;DHT22;21486;51.916;8.378;2023-04-24T15:18:37;9.20;99.20
35381;DHT22;21486;51.916;8.378;2023-04-24T15:21:03;9.20;99.90
35381;DHT22;21486;51.916;8.378;2023-04-24T15:23:28;9.40;99.90
35381;DHT22;21486;51.916;8.378;2023-04-24T15:25:54;9.60;99.70
35381;DHT22;21486;51.916;8.378;2023-04-24T15:28:20;9.70;99.20
35381;DHT22;21486;51.916;8.378;2023-04-24T15:30:47;9.80;99.30
35381;DHT22;21486;51.916;8.378;2023-04-24T15:33:12;10.00;99.90
35381;DHT22;21486;51.916;8.378;2023-04-24T15:35:38;9.90;99.80
35381;DHT22;21486;51.916;8.378;2023-04-24T15:38:03;9.90;98.80
35381;DHT22;21486;51.916;8.378;2023-04-24T15:40:29;9.90;99.10
35381;DHT22;21486;51.916;8.378;2023-04-24T15:42:55;10.00;98.70
35381;DHT22;21486;51.916;8.378;2023-04-24T15:45:21;9.90;98.40